createdAt,value
2019-04-22T00:00:44.598Z,20.67
2019-04-22T00:03:20.734Z,19.10
2019-04-22T00:06:12.890Z,17.90
2019-04-22T00:08:49.560Z,18.67
2019-04-22T00:11:32.923Z,21.73
2019-04-22T00:13:58.886Z,22.20
2019-04-22T00:16:34.390Z,20.57
2019-04-22T00:21:42.186Z,22.27
2019-04-22T00:24:10.970Z,22.97
2019-04-22T00:26:45.828Z,22.57
2019-04-22T00:29:39.486Z,19.50
2019-04-22T00:31:54.744Z,25.23
2019-04-22T00:34:22.848Z,25.97
2019-04-22T00:36:54.910Z,24.67
2019-04-22T00:39:35.922Z,23.60
2019-04-22T00:42:07.782Z,22.67
2019-04-22T00:44:43.201Z,24.67
2019-04-22T00:47:17.701Z,23.53
2019-04-22T00:52:16.616Z,22.20
2019-04-22T00:54:54.431Z,24.93
2019-04-22T00:57:28.071Z,23.53
2019-04-22T01:00:01.733Z,18.20
2019-04-22T01:02:37.606Z,25.53
2019-04-22T01:05:15.373Z,22.90
2019-04-22T01:07:45.011Z,22.03
2019-04-22T01:10:23.639Z,19.10
2019-04-22T01:12:44.019Z,21.40
2019-04-22T01:15:23.356Z,22.10
2019-04-22T01:17:52.570Z,24.80
2019-04-22T01:23:00.644Z,26.23
2019-04-22T01:25:30.987Z,27.97
2019-04-22T01:27:57.165Z,21.63
2019-04-22T01:30:30.299Z,20.10
2019-04-22T01:32:53.910Z,21.47
2019-04-22T01:35:37.763Z,30.20
2019-04-22T01:38:17.687Z,24.87
2019-04-22T01:41:02.728Z,21.70
2019-04-22T01:43:34.959Z,24.13
2019-04-22T01:46:02.645Z,25.37
2019-04-22T01:48:44.821Z,18.77
2019-04-22T01:51:00.899Z,21.10
2019-04-22T01:53:42.393Z,20.93
2019-04-22T01:56:13.720Z,19.47
2019-04-22T01:58:42.328Z,22.17
2019-04-22T02:01:25.236Z,25.83
2019-04-22T02:03:54.670Z,22.03
2019-04-22T02:06:30.434Z,19.23
2019-04-22T02:09:10.959Z,18.83
2019-04-22T02:11:39.056Z,23.13
2019-04-22T02:14:05.066Z,24.57
2019-04-22T02:16:48.172Z,24.73
2019-04-22T02:19:19.023Z,24.40
2019-04-22T02:21:42.860Z,18.87
2019-04-22T02:24:18.521Z,22.87
2019-04-22T02:26:46.452Z,19.17
2019-04-22T02:29:22.776Z,20.23
2019-04-22T02:31:59.419Z,19.93
2019-04-22T02:34:37.959Z,20.27
2019-04-22T02:37:05.025Z,24.93
2019-04-22T02:42:10.709Z,21.63
2019-04-22T02:44:44.774Z,23.47
2019-04-22T02:52:26.167Z,23.23
2019-04-22T02:55:01.524Z,27.97
2019-04-22T03:00:18.219Z,23.90
2019-04-22T03:02:50.698Z,29.03
2019-04-22T03:10:29.921Z,25.13
2019-04-22T03:12:52.164Z,34.70
2019-04-22T03:15:23.920Z,24.53
2019-04-22T03:18:09.523Z,26.57
2019-04-22T03:20:42.019Z,27.47
2019-04-22T03:28:27.395Z,29.67
2019-04-22T03:31:40.317Z,30.87
2019-04-22T03:34:39.581Z,24.03
2019-04-22T03:37:06.605Z,22.50
2019-04-22T03:42:02.532Z,36.03
2019-04-22T03:44:35.859Z,35.93
2019-04-22T03:54:40.016Z,28.10
2019-04-22T03:59:41.885Z,23.63
2019-04-22T04:04:43.200Z,28.43
2019-04-22T04:10:08.090Z,25.40
2019-04-22T04:17:52.032Z,27.50
2019-04-22T04:25:27.190Z,31.03
2019-04-22T04:28:23.017Z,27.30
2019-04-22T04:30:29.406Z,28.60
2019-04-22T04:32:56.772Z,28.27
2019-04-22T04:36:03.416Z,31.13
2019-04-22T04:40:33.263Z,35.10
2019-04-22T04:43:07.348Z,33.43
2019-04-22T04:48:21.112Z,28.77
2019-04-22T04:51:07.784Z,28.70
2019-04-22T04:53:29.296Z,27.87
2019-04-22T04:56:03.202Z,28.90
2019-04-22T05:01:07.368Z,36.83
2019-04-22T05:03:49.009Z,37.53
2019-04-22T05:06:12.572Z,37.77
2019-04-22T05:11:16.245Z,53.00
2019-04-22T05:18:54.676Z,32.97
2019-04-22T05:21:21.822Z,35.30
2019-04-22T05:24:02.345Z,38.73
2019-04-22T05:29:03.807Z,38.63
2019-04-22T05:31:37.183Z,37.97
2019-04-22T05:34:14.644Z,37.50
2019-04-22T05:36:47.222Z,31.57
2019-04-22T05:39:45.439Z,47.47
2019-04-22T05:42:08.461Z,33.13
2019-04-22T05:44:48.001Z,27.87
2019-04-22T05:47:14.730Z,38.73
2019-04-22T05:49:41.335Z,32.73
2019-04-22T05:52:20.365Z,29.43
2019-04-22T05:54:54.924Z,29.00
2019-04-22T05:57:23.379Z,25.93
2019-04-22T06:00:04.720Z,30.20
2019-04-22T06:05:06.955Z,27.00
2019-04-22T06:07:41.801Z,20.20
2019-04-22T06:10:17.376Z,15.50
2019-04-22T06:12:43.317Z,19.13
2019-04-22T06:15:23.377Z,13.93
2019-04-22T06:18:12.427Z,13.97
2019-04-22T06:20:37.281Z,18.50
2019-04-22T06:23:19.056Z,17.33
2019-04-22T06:31:24.467Z,15.33
2019-04-22T06:33:34.712Z,22.40
2019-04-22T06:36:09.481Z,14.10
2019-04-22T06:38:39.191Z,15.13
2019-04-22T06:41:16.449Z,14.23
2019-04-22T06:43:56.183Z,15.30
2019-04-22T06:46:21.170Z,15.43
2019-04-22T06:48:50.472Z,17.73
2019-04-22T06:51:31.097Z,18.87
2019-04-22T06:54:05.171Z,20.60
2019-04-22T06:56:38.805Z,23.77
2019-04-22T06:59:10.026Z,17.67
2019-04-22T07:01:44.428Z,15.97
2019-04-22T07:04:14.113Z,17.60
2019-04-22T07:06:48.331Z,18.80
2019-04-22T07:09:34.960Z,17.83
2019-04-22T07:11:53.087Z,19.57
2019-04-22T07:14:22.725Z,14.07
2019-04-22T07:17:00.902Z,16.90
2019-04-22T07:19:40.939Z,13.03
2019-04-22T07:24:46.356Z,16.73
2019-04-22T07:27:18.958Z,27.40
2019-04-22T07:29:58.485Z,21.23
2019-04-22T07:32:25.358Z,21.23
2019-04-22T07:35:03.766Z,20.20
2019-04-22T07:39:56.552Z,16.10
2019-04-22T07:45:13.125Z,29.47
2019-04-22T07:47:46.216Z,30.17
2019-04-22T07:50:25.401Z,33.77
2019-04-22T07:52:46.747Z,26.80
2019-04-22T07:55:25.061Z,35.17
2019-04-22T07:58:01.882Z,40.60
2019-04-22T08:00:33.071Z,27.40
2019-04-22T08:03:06.595Z,18.60
2019-04-22T08:05:45.009Z,21.83
2019-04-22T08:08:17.431Z,20.80
2019-04-22T08:13:22.952Z,14.13
2019-04-22T08:15:53.993Z,15.77
2019-04-22T08:18:28.960Z,14.87
2019-04-22T08:21:03.167Z,14.53
2019-04-22T08:23:31.684Z,18.23
2019-04-22T08:26:01.127Z,18.67
2019-04-22T08:28:40.755Z,12.77
2019-04-22T08:31:18.752Z,14.57
2019-04-22T08:33:47.097Z,17.17
2019-04-22T08:36:17.952Z,15.63
2019-04-22T08:38:54.239Z,13.90
2019-04-22T08:49:06.510Z,13.50
2019-04-22T08:51:36.238Z,16.17
2019-04-22T08:54:17.948Z,18.50
2019-04-22T08:56:52.343Z,15.43
2019-04-22T08:59:28.142Z,15.47
2019-04-22T09:02:07.723Z,14.90
2019-04-22T09:04:32.859Z,18.07
2019-04-22T09:07:26.499Z,15.10
2019-04-22T09:09:44.755Z,16.17
2019-04-22T09:12:23.995Z,16.30
2019-04-22T09:14:47.514Z,15.33
2019-04-22T09:17:35.125Z,15.47
2019-04-22T09:20:04.115Z,18.77
2019-04-22T09:22:47.086Z,15.03
2019-04-22T09:25:18.719Z,19.03
2019-04-22T09:27:45.378Z,22.60
2019-04-22T09:30:15.122Z,16.20
2019-04-22T09:32:44.839Z,13.33
2019-04-22T09:35:21.487Z,18.33
2019-04-22T09:37:57.310Z,14.87
2019-04-22T09:40:41.897Z,15.03
2019-04-22T09:42:56.039Z,15.33
2019-04-22T09:45:27.554Z,13.10
2019-04-22T09:48:08.362Z,16.30
2019-04-22T09:50:43.131Z,15.13
2019-04-22T09:53:17.559Z,11.37
2019-04-22T09:55:55.211Z,12.37
2019-04-22T09:58:20.912Z,15.87
2019-04-22T10:01:18.723Z,14.63
2019-04-22T10:03:54.620Z,12.50
2019-04-22T10:06:32.016Z,14.20
2019-04-22T10:14:16.982Z,15.63
2019-04-22T10:16:44.974Z,13.23
2019-04-22T10:19:18.772Z,13.90
2019-04-22T10:21:54.887Z,18.37
2019-04-22T10:24:19.191Z,10.57
2019-04-22T10:26:50.581Z,13.57
2019-04-22T10:29:24.435Z,12.00
2019-04-22T10:32:02.973Z,11.27
2019-04-22T10:34:16.766Z,12.50
2019-04-22T10:36:52.663Z,11.53
2019-04-22T10:39:34.334Z,12.60
2019-04-22T10:41:59.060Z,10.20
2019-04-22T10:44:31.267Z,11.60
2019-04-22T10:47:04.243Z,12.53
2019-04-22T10:49:38.334Z,9.53
2019-04-22T10:52:12.844Z,15.27
2019-04-22T10:54:45.495Z,11.70
2019-04-22T10:57:16.266Z,12.63
2019-04-22T10:59:52.752Z,11.43
2019-04-22T11:02:23.471Z,17.03
2019-04-22T11:04:56.342Z,13.17
2019-04-22T11:07:35.988Z,17.50
2019-04-22T11:10:20.633Z,11.50
2019-04-22T11:12:39.551Z,13.10
2019-04-22T11:15:14.303Z,12.17
2019-04-22T11:17:45.204Z,12.03
2019-04-22T11:20:15.909Z,13.07
2019-04-22T11:22:46.749Z,12.13
2019-04-22T11:25:18.056Z,16.67
2019-04-22T11:27:49.377Z,11.67
2019-04-22T11:30:24.063Z,17.90
2019-04-22T11:32:54.209Z,14.90
2019-04-22T11:35:28.032Z,15.23
2019-04-22T11:38:01.101Z,14.00
2019-04-22T11:40:38.387Z,13.60
2019-04-22T11:43:06.367Z,11.47
2019-04-22T11:45:39.649Z,11.10
2019-04-22T11:48:13.270Z,12.43
2019-04-22T11:50:44.097Z,12.27
2019-04-22T11:53:14.833Z,12.63
2019-04-22T11:55:46.739Z,12.03
2019-04-22T11:58:18.973Z,13.10
2019-04-22T12:00:51.509Z,10.93
2019-04-22T12:03:22.930Z,15.33
2019-04-22T12:05:57.714Z,10.33
2019-04-22T12:08:29.098Z,15.03
2019-04-22T12:11:05.503Z,15.20
2019-04-22T12:13:35.830Z,15.97
2019-04-22T12:16:07.530Z,13.43
2019-04-22T12:18:39.591Z,16.10
2019-04-22T12:21:13.131Z,18.27
2019-04-22T12:23:45.198Z,16.13
2019-04-22T12:26:19.056Z,16.63
2019-04-22T12:28:49.044Z,13.60
2019-04-22T12:31:19.816Z,18.87
2019-04-22T12:33:50.547Z,11.27
2019-04-22T12:36:22.583Z,12.60
2019-04-22T12:38:53.751Z,12.93
2019-04-22T12:41:25.865Z,14.97
2019-04-22T12:44:01.488Z,12.77
2019-04-22T12:46:32.419Z,17.23
2019-04-22T12:49:04.427Z,10.83
2019-04-22T12:51:36.679Z,24.97
2019-04-22T12:54:08.835Z,13.33
2019-04-22T12:56:39.744Z,11.33
2019-04-22T12:59:11.731Z,12.43
2019-04-22T13:01:42.802Z,14.43
2019-04-22T13:04:17.472Z,15.83
2019-04-22T13:06:46.227Z,15.97
2019-04-22T13:09:19.065Z,13.33
2019-04-22T13:11:52.948Z,17.93
2019-04-22T13:14:25.023Z,11.93
2019-04-22T13:16:55.777Z,14.07
2019-04-22T13:19:28.378Z,13.83
2019-04-22T13:22:00.752Z,12.63
2019-04-22T13:24:34.175Z,16.37
2019-04-22T13:27:06.558Z,13.23
2019-04-22T13:29:39.020Z,16.07
2019-04-22T13:32:10.879Z,13.63
2019-04-22T13:34:46.632Z,20.07
2019-04-22T13:37:17.005Z,20.77
2019-04-22T13:39:48.985Z,17.10
2019-04-22T13:42:23.148Z,10.67
2019-04-22T13:44:53.811Z,13.60
2019-04-22T13:47:41.979Z,14.83
2019-04-22T13:50:41.170Z,10.83
2019-04-22T13:55:36.695Z,11.10
2019-04-22T13:57:53.876Z,13.27
2019-04-22T14:00:18.417Z,12.67
2019-04-22T14:03:00.587Z,14.37
2019-04-22T14:05:32.927Z,18.87
2019-04-22T14:08:07.900Z,11.37
2019-04-22T14:10:38.804Z,16.57
2019-04-22T14:13:09.948Z,14.87
2019-04-22T14:15:43.572Z,18.27
2019-04-22T14:18:14.830Z,12.37
2019-04-22T14:20:46.956Z,16.03
2019-04-22T14:23:17.931Z,15.03
2019-04-22T14:25:50.809Z,14.30
2019-04-22T14:28:23.301Z,15.20
2019-04-22T14:30:54.702Z,12.43
2019-04-22T14:33:27.880Z,12.20
2019-04-22T14:36:00.601Z,15.80
2019-04-22T14:38:32.450Z,15.47
2019-04-22T14:41:03.267Z,13.43
2019-04-22T14:44:00.666Z,16.40
2019-04-22T14:46:36.612Z,14.13
2019-04-22T14:49:02.733Z,15.77
2019-04-22T14:51:31.905Z,13.63
2019-04-22T14:54:01.637Z,19.97
2019-04-22T14:56:20.271Z,22.03
2019-04-22T14:59:07.268Z,15.57
2019-04-22T15:01:33.211Z,14.47
2019-04-22T15:04:05.462Z,14.13
2019-04-22T15:06:38.025Z,10.13
2019-04-22T15:09:10.316Z,10.83
2019-04-22T15:11:50.801Z,13.00
2019-04-22T15:14:15.196Z,10.27
2019-04-22T15:17:04.953Z,15.03
2019-04-22T15:19:39.947Z,18.67
2019-04-22T15:22:16.774Z,10.87
2019-04-22T15:24:47.741Z,13.17
2019-04-22T15:27:20.314Z,15.70
2019-04-22T15:29:51.719Z,11.77
2019-04-22T15:32:23.251Z,16.20
2019-04-22T15:34:57.423Z,17.10
2019-04-22T15:37:28.394Z,14.47
2019-04-22T15:40:00.479Z,14.53
2019-04-22T15:42:37.471Z,12.83
2019-04-22T15:45:08.685Z,13.87
2019-04-22T15:47:40.029Z,16.87
2019-04-22T15:50:12.386Z,12.93
2019-04-22T15:52:50.015Z,15.20
2019-04-22T15:55:18.768Z,14.93
2019-04-22T15:57:51.980Z,13.97
2019-04-22T16:00:36.761Z,16.60
2019-04-22T16:02:57.274Z,14.00
2019-04-22T16:05:28.266Z,15.00
2019-04-22T16:08:01.294Z,15.63
2019-04-22T16:10:33.579Z,16.77
2019-04-22T16:13:15.068Z,15.90
2019-04-22T16:15:40.437Z,17.43
2019-04-22T16:18:14.978Z,17.50
2019-04-22T16:20:46.369Z,19.30
2019-04-22T16:23:24.506Z,18.40
2019-04-22T16:25:59.153Z,16.43
2019-04-22T16:28:31.566Z,20.17
2019-04-22T16:31:03.985Z,17.47
2019-04-22T16:33:39.920Z,21.90
2019-04-22T16:36:09.233Z,18.43
2019-04-22T16:38:42.650Z,17.23
2019-04-22T16:41:17.121Z,28.27
2019-04-22T16:43:51.193Z,22.93
2019-04-22T16:46:27.777Z,22.13
2019-04-22T16:48:58.524Z,22.40
2019-04-22T16:51:32.135Z,20.77
2019-04-22T16:54:06.485Z,19.33
2019-04-22T16:56:37.192Z,19.73
2019-04-22T16:59:12.739Z,22.10
2019-04-22T17:01:46.288Z,22.73
2019-04-22T17:04:25.329Z,21.63
2019-04-22T17:06:57.479Z,21.00
2019-04-22T17:09:32.030Z,28.57
2019-04-22T17:12:06.081Z,21.77
2019-04-22T17:14:44.192Z,24.27
2019-04-22T17:17:12.706Z,20.07
2019-04-22T17:19:45.149Z,23.70
2019-04-22T17:22:17.445Z,20.27
2019-04-22T17:24:50.262Z,23.67
2019-04-22T17:27:22.280Z,20.43
2019-04-22T17:29:54.642Z,22.63
2019-04-22T17:32:28.728Z,19.00
2019-04-22T17:34:59.505Z,20.33
2019-04-22T17:37:35.174Z,24.07
2019-04-22T17:40:19.608Z,20.70
2019-04-22T17:43:00.944Z,24.07
2019-04-22T17:45:50.833Z,23.93
2019-04-22T17:48:30.921Z,21.97
2019-04-22T17:51:20.619Z,28.90
2019-04-22T17:53:46.691Z,22.50
2019-04-22T17:56:15.182Z,25.77
2019-04-22T17:58:51.539Z,24.13
2019-04-22T18:01:39.741Z,25.53
2019-04-22T18:03:55.534Z,29.00
2019-04-22T18:06:48.817Z,24.07
2019-04-22T18:09:27.677Z,32.73
2019-04-22T18:11:57.412Z,29.47
2019-04-22T18:17:07.072Z,32.73
2019-04-22T18:19:35.142Z,26.07
2019-04-22T18:22:09.173Z,25.80
2019-04-22T18:24:35.195Z,21.57
2019-04-22T18:27:37.546Z,24.90
2019-04-22T18:29:48.459Z,31.57
2019-04-22T18:32:13.520Z,18.83
2019-04-22T18:34:51.667Z,23.17
2019-04-22T18:37:36.154Z,31.93
2019-04-22T18:40:10.211Z,33.40
2019-04-22T18:42:45.827Z,27.93
2019-04-22T18:45:35.137Z,27.73
2019-04-22T18:47:43.952Z,21.00
2019-04-22T18:50:30.750Z,25.83
2019-04-22T18:53:07.104Z,20.87
2019-04-22T18:55:47.102Z,20.77
2019-04-22T18:58:22.746Z,21.33
2019-04-22T19:00:44.077Z,27.00
2019-04-22T19:03:22.681Z,26.37
2019-04-22T19:06:27.628Z,26.23
2019-04-22T19:08:43.345Z,28.93
2019-04-22T19:11:17.458Z,28.83
2019-04-22T19:16:33.464Z,24.63
2019-04-22T19:19:19.273Z,20.53
2019-04-22T19:21:32.457Z,24.87
2019-04-22T19:24:03.137Z,21.37
2019-04-22T19:29:12.376Z,20.93
2019-04-22T19:31:49.652Z,15.73
2019-04-22T19:34:16.620Z,18.37
2019-04-22T19:36:51.844Z,19.87
2019-04-22T19:39:18.219Z,24.40
2019-04-22T19:42:08.171Z,16.93
2019-04-22T19:44:36.350Z,24.30
2019-04-22T19:47:19.596Z,21.33
2019-04-22T19:49:48.381Z,22.47
2019-04-22T19:54:41.981Z,20.10
2019-04-22T19:57:21.531Z,27.43
2019-04-22T20:00:05.415Z,26.37
2019-04-22T20:02:51.546Z,22.97
2019-04-22T20:05:43.609Z,19.97
2019-04-22T20:08:14.477Z,19.33
2019-04-22T20:10:47.105Z,21.37
2019-04-22T20:13:24.290Z,19.90
2019-04-22T20:15:43.794Z,22.33
2019-04-22T20:20:58.305Z,21.57
2019-04-22T20:23:24.264Z,20.77
2019-04-22T20:25:56.159Z,23.27
2019-04-22T20:28:37.909Z,18.97
2019-04-22T20:31:18.955Z,27.30
2019-04-22T20:33:49.868Z,27.67
2019-04-22T20:36:39.795Z,26.17
2019-04-22T20:38:58.181Z,26.27
2019-04-22T20:41:24.915Z,24.23
2019-04-22T20:44:05.160Z,26.33
2019-04-22T20:46:36.077Z,27.53
2019-04-22T20:49:09.602Z,25.30
2019-04-22T20:51:53.434Z,26.47
2019-04-22T20:54:12.199Z,24.20
2019-04-22T20:56:47.788Z,26.73
2019-04-22T20:59:20.231Z,28.70
2019-04-22T21:01:52.562Z,25.13
2019-04-22T21:04:17.239Z,25.60
2019-04-22T21:06:52.793Z,23.70
2019-04-22T21:09:36.668Z,24.23
2019-04-22T21:11:59.107Z,27.30
2019-04-22T21:14:32.294Z,24.10
2019-04-22T21:17:13.055Z,22.63
2019-04-22T21:19:47.949Z,25.50
2019-04-22T21:22:19.403Z,25.30
2019-04-22T21:24:43.749Z,31.07
2019-04-22T21:27:32.730Z,25.33
2019-04-22T21:29:48.489Z,29.53
2019-04-22T21:32:24.132Z,26.17
2019-04-22T21:35:07.649Z,28.60
2019-04-22T21:37:38.061Z,27.00
2019-04-22T21:39:58.903Z,25.80
2019-04-22T21:42:41.681Z,29.17
2019-04-22T21:45:07.241Z,31.00
2019-04-22T21:47:51.522Z,21.50
2019-04-22T21:50:36.071Z,24.47
2019-04-22T21:52:59.460Z,25.60
2019-04-22T21:55:23.907Z,28.67
2019-04-22T21:58:08.010Z,29.97
2019-04-22T22:00:43.512Z,28.90
2019-04-22T22:03:12.813Z,26.77
2019-04-22T22:05:34.230Z,34.17
2019-04-22T22:08:23.109Z,30.10
2019-04-22T22:10:52.555Z,31.50
2019-04-22T22:13:24.681Z,30.77
2019-04-22T22:15:56.352Z,39.80
2019-04-22T22:18:30.670Z,36.43
2019-04-22T22:21:30.970Z,39.13
2019-04-22T22:23:42.392Z,34.90
2019-04-22T22:26:09.468Z,44.37
2019-04-22T22:29:07.778Z,46.07
2019-04-22T22:31:28.568Z,49.10
2019-04-22T22:33:51.458Z,34.57
2019-04-22T22:36:26.735Z,42.13
2019-04-22T22:38:54.543Z,41.23
2019-04-22T22:41:12.033Z,47.47
2019-04-22T22:43:49.307Z,44.50
2019-04-22T22:46:29.317Z,56.77
2019-04-22T22:49:18.661Z,54.53
2019-04-22T22:51:57.352Z,54.57
2019-04-22T22:54:23.669Z,69.10
2019-04-22T22:57:05.333Z,63.23
2019-04-22T22:59:29.336Z,69.43
2019-04-22T23:01:54.570Z,58.00
2019-04-22T23:04:32.891Z,76.70
2019-04-22T23:07:11.538Z,75.17
2019-04-22T23:09:38.699Z,72.63
2019-04-22T23:12:28.887Z,80.00
2019-04-22T23:14:44.223Z,80.60
2019-04-22T23:17:05.181Z,87.27
2019-04-22T23:19:31.851Z,80.30
2019-04-22T23:22:06.476Z,83.77
2019-04-22T23:24:58.226Z,80.60
2019-04-22T23:27:40.160Z,79.47
2019-04-22T23:30:06.430Z,79.83
2019-04-22T23:32:39.960Z,78.43
2019-04-22T23:35:27.006Z,82.80
2019-04-22T23:37:57.305Z,83.20
2019-04-22T23:40:34.355Z,81.70
2019-04-22T23:43:17.284Z,90.27
2019-04-22T23:45:41.663Z,86.87
2019-04-22T23:48:10.185Z,78.93
2019-04-22T23:50:45.976Z,77.13
2019-04-22T23:53:55.689Z,74.70
2019-04-22T23:56:04.305Z,67.07
